createdAt,value
2022-10-20T00:01:10.090Z,2.60
2022-10-20T00:03:38.512Z,4.73
2022-10-20T00:06:11.035Z,4.10
2022-10-20T00:08:39.531Z,5.87
2022-10-20T00:11:08.281Z,4.53
2022-10-20T00:13:36.868Z,5.47
2022-10-20T00:16:06.819Z,5.27
2022-10-20T00:18:35.643Z,5.13
2022-10-20T00:21:08.177Z,5.40
2022-10-20T00:23:36.714Z,5.07
2022-10-20T00:26:05.241Z,5.37
2022-10-20T00:28:33.890Z,4.97
2022-10-20T00:31:02.253Z,4.77
2022-10-20T00:33:31.981Z,6.27
2022-10-20T00:36:00.736Z,4.63
2022-10-20T00:38:29.128Z,3.53
2022-10-20T00:40:59.978Z,5.40
2022-10-20T00:43:42.341Z,6.80
2022-10-20T00:46:12.109Z,5.20
2022-10-20T00:48:42.301Z,5.30
2022-10-20T00:51:10.899Z,3.67
2022-10-20T00:53:39.415Z,6.03
2022-10-20T00:56:08.059Z,5.10
2022-10-20T00:58:36.755Z,4.63
2022-10-20T01:01:05.867Z,4.77
2022-10-20T01:03:38.280Z,5.40
2022-10-20T01:06:08.254Z,6.40
2022-10-20T01:08:36.939Z,4.67
2022-10-20T01:11:10.777Z,5.57
2022-10-20T01:13:44.484Z,6.17
2022-10-20T01:16:15.295Z,6.10
2022-10-20T01:18:47.287Z,5.60
2022-10-20T01:21:41.973Z,5.33
2022-10-20T01:24:25.325Z,2.37
2022-10-20T01:27:04.264Z,6.43
2022-10-20T01:29:36.009Z,5.10
2022-10-20T01:32:09.367Z,4.63
2022-10-20T01:34:50.551Z,3.43
2022-10-20T01:37:34.037Z,6.73
2022-10-20T01:40:13.691Z,5.50
2022-10-20T01:42:43.848Z,5.27
2022-10-20T01:45:15.214Z,4.50
2022-10-20T01:47:45.313Z,5.00
2022-10-20T01:50:14.319Z,3.70
2022-10-20T01:52:42.705Z,5.83
2022-10-20T01:55:13.277Z,2.77
2022-10-20T01:57:46.798Z,3.73
2022-10-20T02:00:17.487Z,4.90
2022-10-20T02:02:54.881Z,5.53
2022-10-20T02:05:32.346Z,4.60
2022-10-20T02:08:05.838Z,2.83
2022-10-20T02:10:38.888Z,2.33
2022-10-20T02:13:08.857Z,4.37
2022-10-20T02:15:39.967Z,4.30
2022-10-20T02:18:09.312Z,2.87
2022-10-20T02:20:41.630Z,4.63
2022-10-20T02:23:10.485Z,5.03
2022-10-20T02:25:39.896Z,4.70
2022-10-20T02:28:10.724Z,3.57
2022-10-20T02:30:41.288Z,6.83
2022-10-20T02:33:09.765Z,5.97
2022-10-20T02:35:38.138Z,5.67
2022-10-20T02:38:06.451Z,6.47
2022-10-20T02:40:34.751Z,3.43
2022-10-20T02:43:03.117Z,6.07
2022-10-20T02:45:31.464Z,5.37
2022-10-20T02:48:02.542Z,4.53
2022-10-20T02:50:31.649Z,7.23
2022-10-20T02:52:59.972Z,3.20
2022-10-20T02:55:28.355Z,5.20
2022-10-20T02:57:56.668Z,3.33
2022-10-20T03:00:29.412Z,5.87
2022-10-20T03:02:57.705Z,5.63
2022-10-20T03:05:28.079Z,6.80
2022-10-20T03:07:56.456Z,4.43
2022-10-20T03:10:24.770Z,6.03
2022-10-20T03:12:53.033Z,6.63
2022-10-20T03:15:21.387Z,5.93
2022-10-20T03:17:49.640Z,4.30
2022-10-20T03:20:17.950Z,4.00
2022-10-20T03:22:47.605Z,7.73
2022-10-20T03:25:16.028Z,6.43
2022-10-20T03:27:44.275Z,5.53
2022-10-20T03:30:12.893Z,9.07
2022-10-20T03:32:41.214Z,8.90
2022-10-20T03:35:09.896Z,5.23
2022-10-20T03:37:38.152Z,6.10
2022-10-20T03:40:08.627Z,4.77
2022-10-20T03:42:37.345Z,6.27
2022-10-20T03:45:06.388Z,7.13
2022-10-20T03:47:34.671Z,7.40
2022-10-20T03:50:02.974Z,3.67
2022-10-20T03:52:31.265Z,6.03
2022-10-20T03:54:59.572Z,9.17
2022-10-20T03:57:29.286Z,7.30
2022-10-20T03:59:57.553Z,5.93
2022-10-20T04:02:31.546Z,6.20
2022-10-20T04:04:59.919Z,7.97
2022-10-20T04:07:28.158Z,4.27
2022-10-20T04:09:56.976Z,6.93
2022-10-20T04:12:25.702Z,7.93
2022-10-20T04:14:55.514Z,5.47
2022-10-20T04:17:23.829Z,6.63
2022-10-20T04:19:52.118Z,6.53
2022-10-20T04:22:20.416Z,8.03
2022-10-20T04:24:48.755Z,9.43
2022-10-20T04:27:17.081Z,4.60
2022-10-20T04:29:45.358Z,7.40
2022-10-20T04:32:15.081Z,7.57
2022-10-20T04:34:43.432Z,6.00
2022-10-20T04:37:11.825Z,6.73
2022-10-20T04:39:40.177Z,5.13
2022-10-20T04:42:08.531Z,2.80
2022-10-20T04:44:36.913Z,6.27
2022-10-20T04:47:05.268Z,6.67
2022-10-20T04:49:34.973Z,4.67
2022-10-20T04:52:03.252Z,2.80
2022-10-20T04:54:31.533Z,4.10
2022-10-20T04:56:59.852Z,2.00
2022-10-20T04:59:28.346Z,2.73
2022-10-20T05:01:56.664Z,4.23
2022-10-20T05:04:25.064Z,3.57
2022-10-20T05:06:54.809Z,3.33
2022-10-20T05:09:23.177Z,3.23
2022-10-20T05:11:51.530Z,3.33
2022-10-20T05:17:15.961Z,5.43
2022-10-20T05:19:45.688Z,7.50
2022-10-20T05:22:16.741Z,1.37
2022-10-20T05:24:45.113Z,2.73
2022-10-20T05:27:13.497Z,4.33
2022-10-20T05:29:41.842Z,4.23
2022-10-20T05:32:10.134Z,4.17
2022-10-20T05:34:39.016Z,2.13
2022-10-20T05:37:07.304Z,2.27
2022-10-20T05:39:37.423Z,3.70
2022-10-20T05:42:05.919Z,2.60
2022-10-20T05:44:34.259Z,2.70
2022-10-20T05:47:02.523Z,5.87
2022-10-20T05:49:30.965Z,7.77
2022-10-20T05:51:59.409Z,5.53
2022-10-20T05:54:27.792Z,3.53
2022-10-20T05:56:57.444Z,1.43
2022-10-20T05:59:25.825Z,1.47
2022-10-20T06:01:54.135Z,5.17
2022-10-20T06:04:24.099Z,2.17
2022-10-20T06:06:52.932Z,3.07
2022-10-20T06:09:21.794Z,3.93
2022-10-20T06:11:50.319Z,3.07
2022-10-20T06:14:22.422Z,2.17
2022-10-20T06:16:52.607Z,7.47
2022-10-20T06:19:21.133Z,8.33
2022-10-20T06:21:49.757Z,3.43
2022-10-20T06:24:18.597Z,8.57
2022-10-20T06:26:47.452Z,8.80
2022-10-20T06:29:16.869Z,6.43
2022-10-20T06:31:47.271Z,7.47
2022-10-20T06:34:17.126Z,5.87
2022-10-20T06:36:46.047Z,8.97
2022-10-20T06:39:15.674Z,7.53
2022-10-20T06:41:48.601Z,4.83
2022-10-20T06:44:17.047Z,5.80
2022-10-20T06:46:46.840Z,9.10
2022-10-20T06:49:15.779Z,7.07
2022-10-20T06:51:44.268Z,7.73
2022-10-20T06:54:12.689Z,8.73
2022-10-20T06:56:41.661Z,5.23
2022-10-20T06:59:14.439Z,6.00
2022-10-20T07:01:42.939Z,5.40
2022-10-20T07:04:16.403Z,3.50
2022-10-20T07:06:45.530Z,7.23
2022-10-20T07:09:15.189Z,5.83
2022-10-20T07:11:44.087Z,6.43
2022-10-20T07:14:13.840Z,4.90
2022-10-20T07:16:42.361Z,9.87
2022-10-20T07:19:10.975Z,8.97
2022-10-20T07:21:45.456Z,7.30
2022-10-20T07:24:14.172Z,5.67
2022-10-20T07:26:43.055Z,8.03
2022-10-20T07:29:13.007Z,5.90
2022-10-20T07:31:42.565Z,9.47
2022-10-20T07:34:28.030Z,5.37
2022-10-20T07:36:58.740Z,10.67
2022-10-20T07:39:30.978Z,10.17
2022-10-20T07:41:59.629Z,5.70
2022-10-20T07:44:29.689Z,7.40
2022-10-20T07:46:58.179Z,5.83
2022-10-20T07:52:17.169Z,7.00
2022-10-20T07:54:45.666Z,5.67
2022-10-20T07:57:14.229Z,5.87
2022-10-20T07:59:42.670Z,4.73
2022-10-20T08:02:12.085Z,6.10
2022-10-20T08:04:41.864Z,6.87
2022-10-20T08:07:10.248Z,3.73
2022-10-20T08:09:40.335Z,5.37
2022-10-20T08:12:08.985Z,6.17
2022-10-20T08:14:37.997Z,5.73
2022-10-20T08:17:06.675Z,7.53
2022-10-20T08:19:48.294Z,4.50
2022-10-20T08:22:19.171Z,5.37
2022-10-20T08:24:49.186Z,7.00
2022-10-20T08:27:17.895Z,4.97
2022-10-20T08:29:55.009Z,4.57
2022-10-20T08:32:32.580Z,2.20
2022-10-20T08:35:04.133Z,5.30
2022-10-20T08:37:35.733Z,5.03
2022-10-20T08:40:05.825Z,1.73
2022-10-20T08:42:37.170Z,7.10
2022-10-20T08:45:05.958Z,3.37
2022-10-20T08:47:37.300Z,4.93
2022-10-20T08:50:07.636Z,1.20
2022-10-20T08:52:36.338Z,5.20
2022-10-20T08:55:07.475Z,5.00
2022-10-20T08:57:37.129Z,6.23
2022-10-20T09:00:17.113Z,7.23
2022-10-20T09:02:45.855Z,4.27
2022-10-20T09:05:18.197Z,4.07
2022-10-20T09:07:49.966Z,4.53
2022-10-20T09:10:26.023Z,5.70
2022-10-20T09:12:55.193Z,6.37
2022-10-20T09:15:26.557Z,6.20
2022-10-20T09:17:57.777Z,3.87
2022-10-20T09:20:28.082Z,7.20
2022-10-20T09:22:56.688Z,4.07
2022-10-20T09:25:29.763Z,3.43
2022-10-20T09:27:58.377Z,3.53
2022-10-20T09:30:34.427Z,5.53
2022-10-20T09:33:11.661Z,6.20
2022-10-20T09:35:41.504Z,1.43
2022-10-20T09:38:18.830Z,2.27
2022-10-20T09:40:59.254Z,4.33
2022-10-20T09:43:31.967Z,2.90
2022-10-20T09:46:01.988Z,2.90
2022-10-20T09:48:31.518Z,2.13
2022-10-20T09:51:02.047Z,5.13
2022-10-20T09:53:32.775Z,4.53
2022-10-20T09:56:02.812Z,3.17
2022-10-20T09:58:32.993Z,3.70
2022-10-20T10:01:03.875Z,4.90
2022-10-20T10:03:40.408Z,4.83
2022-10-20T10:06:23.227Z,4.07
2022-10-20T10:08:52.359Z,3.67
2022-10-20T10:11:24.332Z,1.43
2022-10-20T10:13:54.295Z,4.13
2022-10-20T10:16:24.391Z,4.83
2022-10-20T10:19:02.711Z,1.60
2022-10-20T10:21:32.374Z,2.43
2022-10-20T10:24:01.724Z,2.60
2022-10-20T10:26:47.823Z,4.37
2022-10-20T10:29:27.259Z,5.40
2022-10-20T10:32:00.637Z,3.00
2022-10-20T10:34:34.421Z,3.40
2022-10-20T10:37:04.426Z,3.63
2022-10-20T10:39:35.729Z,1.90
2022-10-20T10:42:17.020Z,2.60
2022-10-20T10:44:52.829Z,3.87
2022-10-20T10:47:34.312Z,2.10
2022-10-20T10:50:08.151Z,2.20
2022-10-20T10:52:43.797Z,1.17
2022-10-20T10:55:43.782Z,1.27
2022-10-20T10:58:10.056Z,0.40
2022-10-20T11:00:42.288Z,0.93
2022-10-20T11:03:23.012Z,3.30
2022-10-20T11:06:02.073Z,2.63
2022-10-20T11:08:38.458Z,4.40
2022-10-20T11:11:14.567Z,3.93
2022-10-20T11:13:45.901Z,4.87
2022-10-20T11:16:34.196Z,7.43
2022-10-20T11:19:20.569Z,5.60
2022-10-20T11:21:53.536Z,2.13
2022-10-20T11:24:37.424Z,3.40
2022-10-20T11:27:09.855Z,3.10
2022-10-20T11:29:41.780Z,1.40
2022-10-20T11:32:12.549Z,3.50
2022-10-20T11:34:48.523Z,3.63
2022-10-20T11:37:20.366Z,1.87
2022-10-20T11:39:52.145Z,1.80
2022-10-20T11:42:25.680Z,1.40
2022-10-20T11:44:56.576Z,2.80
2022-10-20T11:47:27.589Z,4.43
2022-10-20T11:49:56.288Z,5.13
2022-10-20T11:52:42.583Z,5.37
2022-10-20T11:55:29.160Z,13.93
2022-10-20T11:58:03.434Z,11.13
2022-10-20T12:00:39.659Z,5.80
2022-10-20T12:03:17.026Z,6.93
2022-10-20T12:05:57.432Z,9.60
2022-10-20T12:08:35.053Z,6.90
2022-10-20T12:11:07.282Z,12.07
2022-10-20T12:13:40.137Z,11.87
2022-10-20T12:16:10.286Z,14.63
2022-10-20T12:18:39.217Z,14.87
2022-10-20T12:21:08.710Z,5.70
2022-10-20T12:24:02.346Z,2.27
2022-10-20T12:26:54.843Z,0.60
2022-10-20T12:29:41.908Z,7.53
2022-10-20T12:32:36.614Z,6.13
2022-10-20T12:35:25.403Z,3.20
2022-10-20T12:37:56.717Z,2.17
2022-10-20T12:40:27.857Z,1.90
2022-10-20T12:42:57.487Z,0.50
2022-10-20T12:45:41.725Z,0.87
2022-10-20T12:48:22.732Z,4.30
2022-10-20T12:50:58.959Z,0.73
2022-10-20T12:53:28.952Z,1.20
2022-10-20T12:56:02.761Z,7.70
2022-10-20T12:58:35.219Z,10.27
2022-10-20T13:01:08.916Z,3.27
2022-10-20T13:03:45.598Z,2.30
2022-10-20T13:06:33.583Z,7.30
2022-10-20T13:09:21.115Z,8.20
2022-10-20T13:12:00.535Z,11.27
2022-10-20T13:14:35.436Z,12.50
2022-10-20T13:17:16.783Z,12.67
2022-10-20T13:19:51.480Z,14.80
2022-10-20T13:22:41.966Z,14.47
2022-10-20T13:25:21.300Z,5.23
2022-10-20T13:27:51.105Z,13.20
2022-10-20T13:30:22.742Z,15.67
2022-10-20T13:33:18.202Z,20.50
2022-10-20T13:35:51.156Z,17.30
2022-10-20T13:38:22.186Z,6.20
2022-10-20T13:40:55.678Z,15.63
2022-10-20T13:43:29.924Z,10.90
2022-10-20T13:46:12.707Z,7.13
2022-10-20T13:48:47.174Z,9.33
2022-10-20T13:51:20.643Z,10.20
2022-10-20T13:53:51.207Z,6.43
2022-10-20T13:56:26.397Z,10.50
2022-10-20T13:59:05.494Z,15.00
2022-10-20T14:01:35.519Z,2.97
2022-10-20T14:04:03.985Z,5.13
2022-10-20T14:06:41.278Z,12.77
2022-10-20T14:09:27.750Z,12.90
2022-10-20T14:12:02.772Z,15.77
2022-10-20T14:14:31.987Z,9.70
2022-10-20T14:17:02.524Z,18.80
2022-10-20T14:19:34.976Z,13.47
2022-10-20T14:22:14.880Z,19.13
2022-10-20T14:24:45.854Z,20.97
2022-10-20T14:27:17.720Z,22.33
2022-10-20T14:29:46.739Z,19.60
2022-10-20T14:32:19.082Z,28.40
2022-10-20T14:34:55.780Z,26.83
2022-10-20T14:37:30.839Z,21.97
2022-10-20T14:40:01.344Z,18.40
2022-10-20T14:42:31.574Z,8.97
2022-10-20T14:45:01.534Z,19.17
2022-10-20T14:47:34.525Z,16.90
2022-10-20T14:50:03.162Z,15.70
2022-10-20T14:52:35.606Z,27.73
2022-10-20T14:55:04.347Z,21.70
2022-10-20T14:57:39.473Z,16.97
2022-10-20T15:00:26.895Z,16.57
2022-10-20T15:02:58.691Z,17.37
2022-10-20T15:05:33.871Z,15.13
2022-10-20T15:08:10.372Z,18.60
2022-10-20T15:10:40.135Z,15.83
2022-10-20T15:13:22.353Z,16.97
2022-10-20T15:15:53.509Z,14.07
2022-10-20T15:18:23.584Z,10.27
2022-10-20T15:20:54.384Z,1.63
2022-10-20T15:23:29.045Z,4.10
2022-10-20T15:25:59.880Z,11.97
2022-10-20T15:28:33.277Z,2.07
2022-10-20T15:31:02.659Z,1.67
2022-10-20T15:33:31.346Z,5.93
2022-10-20T15:36:03.162Z,4.07
2022-10-20T15:38:32.998Z,3.17
2022-10-20T15:41:02.719Z,0.77
2022-10-20T15:43:31.198Z,12.70
2022-10-20T15:45:59.812Z,15.77
2022-10-20T15:48:29.008Z,7.80
2022-10-20T15:50:59.113Z,14.00
2022-10-20T15:53:27.717Z,6.10
2022-10-20T15:55:57.535Z,2.93
2022-10-20T15:58:25.915Z,4.13
2022-10-20T16:00:56.889Z,9.87
2022-10-20T16:03:25.438Z,2.53
2022-10-20T16:05:53.782Z,0.40
2022-10-20T16:08:22.195Z,5.20
2022-10-20T16:10:50.516Z,10.97
2022-10-20T16:13:21.192Z,11.90
2022-10-20T16:15:49.583Z,10.87
2022-10-20T16:18:17.913Z,17.47
2022-10-20T16:20:46.272Z,18.70
2022-10-20T16:23:14.909Z,15.50
2022-10-20T16:25:43.329Z,21.20
2022-10-20T16:28:11.929Z,11.70
2022-10-20T16:30:41.763Z,18.23
2022-10-20T16:33:10.445Z,13.17
2022-10-20T16:35:43.469Z,0.40
2022-10-20T16:38:12.129Z,5.37
2022-10-20T16:40:40.504Z,10.83
2022-10-20T16:43:08.879Z,18.63
2022-10-20T16:45:40.549Z,17.17
2022-10-20T16:48:10.303Z,21.40
2022-10-20T16:50:42.072Z,20.50
2022-10-20T16:53:10.401Z,22.73
2022-10-20T16:55:38.785Z,8.77
2022-10-20T16:58:07.191Z,1.83
2022-10-20T17:00:35.662Z,9.10
2022-10-20T17:03:04.251Z,6.83
2022-10-20T17:05:33.936Z,2.40
2022-10-20T17:08:02.821Z,1.03
2022-10-20T17:10:31.260Z,2.63
2022-10-20T17:12:59.683Z,2.20
2022-10-20T17:15:28.988Z,2.30
2022-10-20T17:17:57.307Z,2.30
2022-10-20T17:20:25.692Z,2.97
2022-10-20T17:22:56.779Z,6.27
2022-10-20T17:25:25.140Z,2.20
2022-10-20T17:27:53.510Z,5.57
2022-10-20T17:30:24.658Z,3.17
2022-10-20T17:32:53.050Z,12.43
2022-10-20T17:35:21.433Z,7.97
2022-10-20T17:37:49.786Z,4.27
2022-10-20T17:40:22.059Z,23.83
2022-10-20T17:42:50.636Z,25.90
2022-10-20T17:45:19.209Z,30.80
2022-10-20T17:47:47.571Z,12.43
2022-10-20T17:50:15.937Z,13.33
2022-10-20T17:52:44.256Z,18.73
2022-10-20T17:55:12.645Z,15.07
2022-10-20T17:57:42.332Z,19.17
2022-10-20T18:00:19.069Z,11.37
2022-10-20T18:02:52.162Z,7.80
2022-10-20T18:05:20.816Z,1.40
2022-10-20T18:07:49.165Z,5.23
2022-10-20T18:10:17.680Z,3.73
2022-10-20T18:12:47.452Z,4.53
2022-10-20T18:15:16.016Z,2.93
2022-10-20T18:17:44.395Z,1.07
2022-10-20T18:20:13.160Z,3.20
2022-10-20T18:22:41.591Z,1.77
2022-10-20T18:25:10.312Z,5.90
2022-10-20T18:27:38.658Z,11.13
2022-10-20T18:30:09.528Z,9.07
2022-10-20T18:32:38.152Z,5.73
2022-10-20T18:35:07.261Z,18.27
2022-10-20T18:37:35.990Z,19.67
2022-10-20T18:40:04.764Z,10.63
2022-10-20T18:42:33.233Z,15.20
2022-10-20T18:45:01.785Z,1.90
2022-10-20T18:47:31.502Z,2.33
2022-10-20T18:49:59.873Z,11.63
2022-10-20T18:52:28.224Z,10.77
2022-10-20T18:54:56.610Z,6.33
2022-10-20T18:57:24.930Z,12.73
2022-10-20T18:59:53.276Z,4.03
2022-10-20T19:02:21.662Z,7.10
2022-10-20T19:04:51.420Z,1.90
2022-10-20T19:07:19.699Z,5.30
2022-10-20T19:09:52.134Z,7.80
2022-10-20T19:12:23.800Z,0.60
2022-10-20T19:14:52.256Z,9.67
2022-10-20T19:17:20.660Z,5.00
2022-10-20T19:19:48.994Z,18.77
2022-10-20T19:22:18.855Z,22.70
2022-10-20T19:24:47.356Z,26.40
2022-10-20T19:27:26.450Z,28.50
2022-10-20T19:29:56.246Z,25.53
2022-10-20T19:32:24.604Z,23.07
2022-10-20T19:34:52.986Z,16.67
2022-10-20T19:37:22.749Z,13.90
2022-10-20T19:39:51.093Z,9.70
2022-10-20T19:42:19.401Z,6.93
2022-10-20T19:44:48.090Z,1.77
2022-10-20T19:47:16.796Z,9.73
2022-10-20T19:49:45.226Z,4.47
2022-10-20T19:52:13.753Z,6.47
2022-10-20T19:54:43.473Z,2.73
2022-10-20T19:57:11.890Z,2.17
2022-10-20T19:59:40.253Z,3.50
2022-10-20T20:02:09.006Z,1.67
2022-10-20T20:04:37.352Z,5.37
2022-10-20T20:07:05.866Z,3.30
2022-10-20T20:09:34.280Z,1.83
2022-10-20T20:12:04.122Z,2.57
2022-10-20T20:14:32.485Z,4.73
2022-10-20T20:17:00.923Z,1.37
2022-10-20T20:19:29.302Z,10.03
2022-10-20T20:21:57.816Z,1.37
2022-10-20T20:24:26.150Z,5.20
2022-10-20T20:26:56.872Z,1.70
2022-10-20T20:29:29.699Z,2.40
2022-10-20T20:31:58.085Z,1.13
2022-10-20T20:34:26.895Z,3.23
2022-10-20T20:36:55.256Z,0.97
2022-10-20T20:39:24.116Z,3.87
2022-10-20T20:41:52.488Z,1.30
2022-10-20T20:44:20.969Z,3.27
2022-10-20T20:46:50.662Z,0.93
2022-10-20T20:49:19.153Z,3.90
2022-10-20T20:51:47.539Z,6.10
2022-10-20T20:54:15.878Z,1.10
2022-10-20T20:56:44.256Z,2.87
2022-10-20T20:59:13.031Z,0.80
2022-10-20T21:01:42.097Z,3.93
2022-10-20T21:04:12.817Z,8.43
2022-10-20T21:07:02.093Z,7.60
2022-10-20T21:09:30.056Z,6.83
2022-10-20T21:11:58.609Z,1.90
2022-10-20T21:14:27.137Z,11.00
2022-10-20T21:16:55.531Z,9.07
2022-10-20T21:19:25.232Z,7.70
2022-10-20T21:21:57.384Z,23.43
2022-10-20T21:24:26.562Z,17.77
2022-10-20T21:26:55.023Z,9.93
2022-10-20T21:29:23.444Z,9.50
2022-10-20T21:31:51.920Z,18.63
2022-10-20T21:34:20.297Z,14.90
2022-10-20T21:36:50.047Z,9.27
2022-10-20T21:39:18.449Z,1.90
2022-10-20T21:41:47.150Z,10.07
2022-10-20T21:44:15.872Z,15.43
2022-10-20T21:46:47.526Z,24.53
2022-10-20T21:49:17.668Z,13.97
2022-10-20T21:51:47.414Z,15.47
2022-10-20T21:54:18.328Z,17.47
2022-10-20T21:56:46.997Z,18.70
2022-10-20T21:59:17.738Z,16.67
2022-10-20T22:01:46.250Z,15.77
2022-10-20T22:04:14.686Z,21.50
2022-10-20T22:06:43.380Z,15.47
2022-10-20T22:09:12.333Z,17.00
2022-10-20T22:11:43.507Z,20.70
2022-10-20T22:14:12.089Z,14.60
2022-10-20T22:16:41.777Z,13.03
2022-10-20T22:19:11.226Z,16.03
2022-10-20T22:21:40.457Z,3.97
2022-10-20T22:24:08.783Z,2.70
2022-10-20T22:26:37.233Z,13.13
2022-10-20T22:29:09.488Z,14.53
2022-10-20T22:31:38.377Z,22.17
2022-10-20T22:34:07.051Z,19.97
2022-10-20T22:36:35.440Z,19.80
2022-10-20T22:39:03.842Z,20.93
2022-10-20T22:41:32.236Z,21.03
2022-10-20T22:44:00.542Z,18.83
2022-10-20T22:46:30.411Z,17.50
2022-10-20T22:51:27.036Z,17.23
2022-10-20T22:53:55.440Z,17.70
2022-10-20T22:56:24.057Z,5.90
2022-10-20T22:58:53.977Z,8.77
2022-10-20T23:01:23.152Z,20.73
2022-10-20T23:03:52.972Z,17.93
2022-10-20T23:06:22.426Z,12.77
2022-10-20T23:08:51.698Z,15.70
2022-10-20T23:11:20.405Z,16.83
2022-10-20T23:13:49.901Z,12.37
2022-10-20T23:16:18.426Z,17.27
2022-10-20T23:18:46.844Z,17.67
2022-10-20T23:21:16.916Z,21.40
2022-10-20T23:23:45.279Z,17.80
2022-10-20T23:26:14.232Z,20.43
2022-10-20T23:28:42.667Z,10.43
2022-10-20T23:31:12.044Z,18.87
2022-10-20T23:33:41.702Z,16.03
2022-10-20T23:36:10.444Z,10.20
2022-10-20T23:38:40.303Z,0.97
2022-10-20T23:41:08.888Z,9.87
2022-10-20T23:43:37.552Z,8.33
2022-10-20T23:46:06.023Z,11.37
2022-10-20T23:48:34.761Z,2.50
2022-10-20T23:51:03.078Z,6.43
2022-10-20T23:53:31.486Z,9.90
2022-10-20T23:56:01.295Z,7.57
2022-10-20T23:58:29.679Z,2.67
